createdAt,value
2022-10-31T00:02:02.725Z,81.21
2022-10-31T00:04:32.128Z,80.88
2022-10-31T00:07:01.609Z,80.69
2022-10-31T00:09:30.937Z,80.65
2022-10-31T00:12:00.506Z,81.27
2022-10-31T00:14:30.163Z,80.40
2022-10-31T00:17:01.048Z,80.42
2022-10-31T00:19:30.302Z,80.51
2022-10-31T00:21:59.748Z,80.55
2022-10-31T00:24:29.056Z,80.20
2022-10-31T00:26:58.495Z,80.64
2022-10-31T00:29:27.701Z,80.17
2022-10-31T00:31:57.161Z,80.94
2022-10-31T00:34:27.962Z,80.88
2022-10-31T00:36:57.409Z,80.65
2022-10-31T00:39:26.707Z,80.33
2022-10-31T00:41:56.146Z,79.89
2022-10-31T00:44:25.513Z,80.18
2022-10-31T00:46:56.122Z,80.45
2022-10-31T00:49:26.859Z,79.97
2022-10-31T00:51:56.385Z,80.07
2022-10-31T00:54:25.814Z,80.15
2022-10-31T00:56:55.232Z,80.35
2022-10-31T00:59:24.589Z,80.58
2022-10-31T01:01:54.178Z,80.22
2022-10-31T01:04:24.258Z,80.74
2022-10-31T01:06:55.052Z,80.22
2022-10-31T01:09:26.694Z,80.11
2022-10-31T01:11:56.176Z,80.21
2022-10-31T01:14:27.155Z,80.51
2022-10-31T01:17:00.030Z,80.53
2022-10-31T01:19:29.348Z,80.62
2022-10-31T01:22:01.892Z,80.60
2022-10-31T01:24:32.259Z,81.92
2022-10-31T01:27:01.754Z,81.24
2022-10-31T01:29:31.157Z,80.66
2022-10-31T01:32:02.036Z,81.23
2022-10-31T01:34:31.498Z,81.01
2022-10-31T01:37:02.312Z,81.33
2022-10-31T01:39:31.667Z,81.32
2022-10-31T01:42:01.109Z,81.55
2022-10-31T01:45:04.119Z,81.46
2022-10-31T01:47:42.016Z,81.33
2022-10-31T01:50:19.963Z,80.72
2022-10-31T01:52:54.112Z,81.08
2022-10-31T01:55:30.356Z,81.36
2022-10-31T01:58:07.160Z,81.34
2022-10-31T02:00:36.700Z,81.08
2022-10-31T02:03:06.583Z,80.48
2022-10-31T02:05:37.854Z,81.05
2022-10-31T02:08:14.135Z,80.57
2022-10-31T02:10:44.736Z,79.95
2022-10-31T02:13:15.266Z,80.35
2022-10-31T02:15:54.457Z,79.89
2022-10-31T02:18:26.229Z,80.20
2022-10-31T02:21:03.761Z,79.98
2022-10-31T02:24:11.926Z,80.34
2022-10-31T02:27:01.297Z,80.31
2022-10-31T02:30:07.394Z,79.69
2022-10-31T02:33:04.385Z,79.85
2022-10-31T02:35:45.478Z,79.95
2022-10-31T02:38:28.388Z,79.55
2022-10-31T02:41:08.897Z,79.58
2022-10-31T02:43:57.223Z,79.93
2022-10-31T02:46:36.902Z,79.68
2022-10-31T02:49:22.643Z,79.79
2022-10-31T02:51:52.631Z,79.54
2022-10-31T02:54:25.857Z,80.40
2022-10-31T02:57:02.940Z,80.37
2022-10-31T02:59:36.486Z,80.21
2022-10-31T03:02:48.572Z,79.85
2022-10-31T03:05:51.512Z,79.54
2022-10-31T03:08:28.775Z,80.17
2022-10-31T03:11:01.113Z,80.55
2022-10-31T03:13:38.997Z,80.49
2022-10-31T03:16:13.062Z,80.15
2022-10-31T03:18:46.302Z,80.96
2022-10-31T03:21:21.698Z,80.80
2022-10-31T03:23:54.315Z,80.23
2022-10-31T03:26:28.873Z,80.20
2022-10-31T03:29:04.389Z,80.55
2022-10-31T03:36:32.294Z,81.27
2022-10-31T03:39:04.559Z,81.70
2022-10-31T03:41:41.134Z,81.85
2022-10-31T03:44:17.024Z,81.44
2022-10-31T03:46:49.028Z,81.17
2022-10-31T03:49:18.750Z,81.83
2022-10-31T03:51:54.546Z,81.18
2022-10-31T03:54:32.053Z,81.46
2022-10-31T03:57:09.162Z,81.02
2022-10-31T03:59:43.347Z,81.37
2022-10-31T04:02:18.259Z,82.50
2022-10-31T04:04:48.980Z,82.57
2022-10-31T04:07:23.042Z,81.74
2022-10-31T04:09:55.411Z,81.68
2022-10-31T04:12:28.719Z,81.72
2022-10-31T04:15:17.789Z,82.20
2022-10-31T04:17:49.963Z,82.15
2022-10-31T04:20:20.881Z,82.74
2022-10-31T04:22:52.645Z,83.02
2022-10-31T04:25:21.861Z,83.35
2022-10-31T04:27:51.877Z,82.56
2022-10-31T04:30:21.190Z,83.13
2022-10-31T04:32:50.725Z,83.52
2022-10-31T04:35:20.688Z,82.93
2022-10-31T04:37:51.854Z,82.64
2022-10-31T04:40:21.766Z,82.32
2022-10-31T04:43:29.612Z,82.09
2022-10-31T04:45:58.769Z,82.73
2022-10-31T04:48:28.574Z,82.02
2022-10-31T04:51:02.410Z,82.27
2022-10-31T04:53:33.343Z,81.95
2022-10-31T04:56:22.812Z,81.72
2022-10-31T04:58:58.543Z,82.13
2022-10-31T05:01:29.405Z,82.14
2022-10-31T05:04:00.352Z,82.23
2022-10-31T05:06:30.393Z,83.16
2022-10-31T05:09:01.878Z,83.30
2022-10-31T05:11:31.859Z,83.53
2022-10-31T05:14:11.720Z,83.08
2022-10-31T05:17:19.173Z,82.51
2022-10-31T05:20:12.107Z,82.49
2022-10-31T05:23:07.324Z,82.38
2022-10-31T05:25:38.367Z,81.74
2022-10-31T05:28:07.616Z,82.83
2022-10-31T05:30:37.594Z,82.34
2022-10-31T05:33:09.765Z,82.28
2022-10-31T05:35:57.480Z,82.38
2022-10-31T05:38:34.020Z,82.67
2022-10-31T05:41:15.180Z,82.40
2022-10-31T05:43:49.344Z,82.50
2022-10-31T05:46:22.185Z,82.84
2022-10-31T05:49:10.090Z,82.78
2022-10-31T05:51:58.002Z,82.68
2022-10-31T05:54:36.324Z,82.50
2022-10-31T05:57:07.523Z,82.96
2022-10-31T05:59:36.718Z,82.77
2022-10-31T06:02:06.209Z,82.91
2022-10-31T06:04:53.905Z,82.49
2022-10-31T06:07:23.402Z,82.87
2022-10-31T06:09:52.866Z,82.82
2022-10-31T06:12:25.758Z,83.09
2022-10-31T06:15:23.729Z,83.29
2022-10-31T06:18:01.952Z,83.02
2022-10-31T06:20:34.162Z,82.86
2022-10-31T06:23:07.015Z,82.74
2022-10-31T06:25:37.310Z,82.38
2022-10-31T06:28:09.290Z,82.69
2022-10-31T06:30:49.439Z,82.61
2022-10-31T06:33:19.545Z,82.73
2022-10-31T06:36:09.521Z,82.50
2022-10-31T06:38:39.853Z,82.25
2022-10-31T06:41:12.257Z,83.09
2022-10-31T06:43:49.424Z,82.88
2022-10-31T06:46:38.710Z,83.29
2022-10-31T06:49:28.089Z,83.28
2022-10-31T06:52:00.090Z,82.94
2022-10-31T06:54:29.623Z,82.66
2022-10-31T06:56:59.251Z,82.51
2022-10-31T06:59:30.577Z,82.15
2022-10-31T07:02:18.040Z,81.82
2022-10-31T07:04:47.792Z,81.97
2022-10-31T07:07:18.464Z,81.94
2022-10-31T07:09:48.656Z,82.33
2022-10-31T07:12:20.514Z,81.98
2022-10-31T07:15:01.385Z,82.24
2022-10-31T07:17:30.694Z,82.04
2022-10-31T07:20:02.806Z,82.32
2022-10-31T07:22:36.256Z,81.63
2022-10-31T07:25:08.471Z,81.77
2022-10-31T07:28:04.044Z,81.72
2022-10-31T07:30:35.073Z,81.00
2022-10-31T07:33:04.817Z,81.16
2022-10-31T07:35:57.070Z,80.40
2022-10-31T07:38:31.144Z,80.66
2022-10-31T07:41:02.597Z,80.36
2022-10-31T07:43:34.245Z,80.31
2022-10-31T07:46:30.996Z,79.97
2022-10-31T07:49:18.479Z,80.75
2022-10-31T07:52:14.222Z,79.81
2022-10-31T07:55:13.253Z,79.71
2022-10-31T07:57:42.883Z,79.82
2022-10-31T08:00:13.683Z,79.56
2022-10-31T08:02:48.020Z,81.24
2022-10-31T08:05:37.996Z,81.37
2022-10-31T08:08:39.540Z,81.86
2022-10-31T08:11:11.063Z,81.80
2022-10-31T08:13:43.989Z,83.10
2022-10-31T08:16:16.279Z,82.48
2022-10-31T08:18:58.238Z,82.41
2022-10-31T08:21:27.951Z,81.85
2022-10-31T08:23:58.257Z,81.42
2022-10-31T08:26:28.229Z,81.69
2022-10-31T08:28:59.224Z,81.38
2022-10-31T08:31:34.379Z,81.64
2022-10-31T08:34:32.903Z,81.82
2022-10-31T08:37:21.034Z,81.34
2022-10-31T08:39:55.070Z,81.62
2022-10-31T08:42:24.944Z,81.04
2022-10-31T08:44:55.228Z,81.52
2022-10-31T08:47:25.367Z,81.48
2022-10-31T08:49:57.365Z,80.39
2022-10-31T08:52:51.176Z,79.96
2022-10-31T08:55:17.525Z,80.25
2022-10-31T08:57:49.621Z,80.19
2022-10-31T09:00:19.511Z,80.75
2022-10-31T09:03:12.467Z,80.49
2022-10-31T09:05:43.625Z,80.00
2022-10-31T09:08:16.981Z,79.90
2022-10-31T09:10:49.258Z,80.38
2022-10-31T09:13:27.963Z,79.78
2022-10-31T09:16:20.247Z,80.00
2022-10-31T09:18:49.743Z,81.16
2022-10-31T09:21:21.258Z,80.73
2022-10-31T09:23:50.520Z,81.61
2022-10-31T09:26:19.969Z,82.33
2022-10-31T09:28:59.590Z,81.28
2022-10-31T09:31:29.228Z,80.42
2022-10-31T09:34:18.911Z,78.95
2022-10-31T09:36:56.155Z,80.14
2022-10-31T09:39:27.253Z,80.15
2022-10-31T09:42:17.231Z,79.54
2022-10-31T09:45:00.665Z,79.85
2022-10-31T09:47:53.834Z,79.67
2022-10-31T09:50:44.203Z,79.02
2022-10-31T09:53:57.588Z,79.69
2022-10-31T09:56:30.052Z,80.91
2022-10-31T09:59:05.665Z,81.38
2022-10-31T10:01:45.742Z,81.68
2022-10-31T10:04:33.192Z,81.18
2022-10-31T10:07:42.912Z,82.02
2022-10-31T10:10:57.487Z,81.03
2022-10-31T10:13:58.492Z,81.30
2022-10-31T10:16:51.866Z,81.70
2022-10-31T10:19:39.322Z,81.17
2022-10-31T10:22:15.136Z,81.37
2022-10-31T10:24:54.092Z,81.68
2022-10-31T10:27:33.301Z,81.66
2022-10-31T10:30:07.474Z,81.83
2022-10-31T11:02:41.211Z,80.11
2022-10-31T11:10:26.008Z,82.09
2022-10-31T11:27:47.980Z,81.01
2022-10-31T11:41:12.090Z,82.26
2022-10-31T11:48:51.906Z,81.09
2022-10-31T12:05:47.963Z,80.37
2022-10-31T12:23:56.503Z,81.36
2022-10-31T12:41:55.107Z,80.56
2022-10-31T12:55:05.751Z,79.30
2022-10-31T13:02:55.109Z,78.86
2022-10-31T13:20:55.545Z,78.38
2022-10-31T13:39:18.631Z,79.39
2022-10-31T13:47:01.103Z,80.64
2022-10-31T14:10:26.630Z,78.88
2022-10-31T14:48:16.506Z,80.67
2022-10-31T14:56:04.248Z,81.10
2022-10-31T15:13:22.570Z,80.96
2022-10-31T15:51:31.494Z,81.28
2022-10-31T16:29:27.700Z,82.47
2022-10-31T17:00:22.824Z,82.71
2022-10-31T17:16:51.724Z,82.66
2022-10-31T17:34:02.736Z,82.71
2022-10-31T18:00:02.653Z,83.17
2022-10-31T18:07:09.389Z,83.08
2022-10-31T18:18:59.407Z,82.64
2022-10-31T18:26:12.376Z,82.43
2022-10-31T18:37:59.341Z,82.19
2022-10-31T18:49:49.331Z,82.81
2022-10-31T19:11:00.505Z,81.83
2022-10-31T19:18:44.161Z,81.70
2022-10-31T19:26:00.645Z,81.77
2022-10-31T19:37:55.584Z,81.60
2022-10-31T19:45:08.767Z,81.61
2022-10-31T19:52:22.050Z,81.21
2022-10-31T20:00:41.631Z,81.86
2022-10-31T20:03:12.416Z,82.28
2022-10-31T20:05:42.531Z,82.35
2022-10-31T20:08:15.132Z,82.07
2022-10-31T20:10:54.468Z,82.18
2022-10-31T20:13:23.864Z,82.19
2022-10-31T20:15:53.462Z,82.46
2022-10-31T20:18:25.755Z,82.77
2022-10-31T20:20:55.012Z,82.64
2022-10-31T20:23:24.330Z,82.64
2022-10-31T20:25:53.264Z,82.29
2022-10-31T20:28:22.393Z,82.07
2022-10-31T20:30:52.074Z,82.58
2022-10-31T20:33:21.201Z,82.32
2022-10-31T20:35:53.399Z,82.44
2022-10-31T20:38:22.649Z,82.30
2022-10-31T20:40:51.619Z,82.48
2022-10-31T20:43:20.761Z,82.11
2022-10-31T20:45:49.693Z,82.04
2022-10-31T20:48:20.049Z,82.79
2022-10-31T20:50:49.023Z,82.56
2022-10-31T20:53:19.776Z,82.70
2022-10-31T20:55:48.897Z,82.36
2022-10-31T20:58:18.165Z,82.12
2022-10-31T21:00:47.186Z,82.11
2022-10-31T21:03:16.398Z,82.18
2022-10-31T21:05:52.569Z,82.03
2022-10-31T21:08:23.690Z,82.00
2022-10-31T21:10:52.766Z,81.96
2022-10-31T21:13:22.365Z,81.86
2022-10-31T21:16:00.196Z,82.16
2022-10-31T21:18:29.566Z,82.04
2022-10-31T21:20:58.595Z,81.94
2022-10-31T21:23:29.313Z,81.92
2022-10-31T21:25:58.432Z,81.78
2022-10-31T21:28:27.648Z,81.96
2022-10-31T21:30:56.601Z,81.76
2022-10-31T21:33:25.803Z,82.73
2022-10-31T21:35:54.853Z,82.54
2022-10-31T21:38:23.994Z,82.47
2022-10-31T21:41:01.180Z,82.44
2022-10-31T21:43:30.644Z,82.56
2022-10-31T21:46:03.254Z,82.41
2022-10-31T21:48:33.205Z,82.58
2022-10-31T21:51:04.011Z,82.75
2022-10-31T21:53:50.502Z,82.80
2022-10-31T21:56:20.942Z,82.49
2022-10-31T21:58:50.089Z,82.59
2022-10-31T22:01:19.448Z,82.65
2022-10-31T22:03:49.245Z,82.48
2022-10-31T22:06:18.736Z,82.30
2022-10-31T22:08:48.111Z,82.37
2022-10-31T22:11:18.271Z,82.72
2022-10-31T22:13:49.845Z,82.58
2022-10-31T22:16:19.669Z,82.52
2022-10-31T22:18:49.226Z,83.03
2022-10-31T22:21:19.633Z,82.85
2022-10-31T22:23:51.440Z,82.97
2022-10-31T22:26:20.824Z,82.73
2022-10-31T22:28:53.327Z,82.68
2022-10-31T22:31:23.222Z,82.57
2022-10-31T22:33:52.724Z,82.73
2022-10-31T22:36:22.473Z,82.34
2022-10-31T22:38:51.672Z,82.42
2022-10-31T22:41:22.232Z,82.10
2022-10-31T22:43:52.901Z,82.19
2022-10-31T22:46:23.313Z,82.38
2022-10-31T22:48:53.436Z,82.12
2022-10-31T22:51:23.325Z,81.85
2022-10-31T22:53:52.563Z,81.96
2022-10-31T22:56:22.269Z,81.88
2022-10-31T22:58:52.933Z,81.73
2022-10-31T23:01:22.771Z,81.87
2022-10-31T23:03:52.378Z,82.04
2022-10-31T23:06:21.986Z,82.28
2022-10-31T23:08:51.920Z,82.14
2022-10-31T23:11:21.918Z,82.52
2022-10-31T23:14:13.792Z,82.29
2022-10-31T23:16:44.724Z,81.92
2022-10-31T23:19:14.968Z,82.43
2022-10-31T23:21:57.418Z,82.26
2022-10-31T23:24:29.070Z,82.35
2022-10-31T23:27:07.576Z,82.24
2022-10-31T23:29:39.509Z,81.93
2022-10-31T23:32:09.569Z,81.79
2022-10-31T23:34:38.813Z,82.07
2022-10-31T23:39:42.184Z,82.22
2022-10-31T23:42:11.309Z,82.19
2022-10-31T23:44:41.932Z,81.75
2022-10-31T23:47:11.027Z,81.75
2022-10-31T23:49:40.612Z,81.74
2022-10-31T23:52:09.784Z,82.75
2022-10-31T23:54:38.959Z,82.47
2022-10-31T23:57:07.969Z,82.28
2022-10-31T23:59:37.605Z,82.57
